Wilbur by the Sea, Florida
Current Conditions -  °F | °C
As of 9:47 PM on Thursday 30 Oct 2014 (Local Time) from KEVB Reporting Station
Scattered Clouds Scattered Clouds  
Wind Chill: 72°   Ceiling: Unl
Heat Index: 72°   Visibility: 10mi
Dew Point: 68°   Wind: 0mph
Humidity: 88%   Direction: NA
Pressure: 29.92"   Gusts: NA
Location:  29.1091°N, 80.9979°W
Report Text: KEVB 310147Z 00000KT 10SM SCT110 22/20 A2992 RMK LAST
Loading
Personal Weather Stations






























Interactive Weather Map New forecast layout! Learn more

10-Day Weather Forecast

Advertisements
Track Severe Weather on mobile